sensor_id;sensor_type;location;lat;lon;timestamp;pressure;altitude;pressure_sealevel;temperature
76583;BMP280;65462;52.148;7.940;2023-07-20T00:02:03;100550.47;;;18.49
76583;BMP280;65462;52.148;7.940;2023-07-20T00:04:30;100555.81;;;18.49
76583;BMP280;65462;52.148;7.940;2023-07-20T00:06:55;100553.50;;;18.48
76583;BMP280;65462;52.148;7.940;2023-07-20T00:09:20;100548.91;;;18.48
76583;BMP280;65462;52.148;7.940;2023-07-20T00:11:50;100545.84;;;18.46
76583;BMP280;65462;52.148;7.940;2023-07-20T00:14:16;100548.13;;;18.44
76583;BMP280;65462;52.148;7.940;2023-07-20T00:16:41;100542.78;;;18.44
76583;BMP280;65462;52.148;7.940;2023-07-20T00:19:07;100543.50;;;18.41
76583;BMP280;65462;52.148;7.940;2023-07-20T00:21:34;100542.78;;;18.41
76583;BMP280;65462;52.148;7.940;2023-07-20T00:23:59;100536.66;;;18.40
76583;BMP280;65462;52.148;7.940;2023-07-20T00:26:24;100541.59;;;18.38
76583;BMP280;65462;52.148;7.940;2023-07-20T00:28:50;100541.97;;;18.36
76583;BMP280;65462;52.148;7.940;2023-07-20T00:31:16;100533.56;;;18.34
76583;BMP280;65462;52.148;7.940;2023-07-20T00:33:41;100535.50;;;18.34
76583;BMP280;65462;52.148;7.940;2023-07-20T00:36:06;100522.09;;;18.34
76583;BMP280;65462;52.148;7.940;2023-07-20T00:38:32;100519.78;;;18.32
76583;BMP280;65462;52.148;7.940;2023-07-20T00:40:57;100524.38;;;18.32
76583;BMP280;65462;52.148;7.940;2023-07-20T00:43:22;100518.66;;;18.33
76583;BMP280;65462;52.148;7.940;2023-07-20T00:45:48;100514.84;;;18.31
76583;BMP280;65462;52.148;7.940;2023-07-20T00:48:14;100517.09;;;18.29
76583;BMP280;65462;52.148;7.940;2023-07-20T00:50:39;100513.66;;;18.28
76583;BMP280;65462;52.148;7.940;2023-07-20T00:53:05;100515.19;;;18.26
76583;BMP280;65462;52.148;7.940;2023-07-20T00:55:31;100521.66;;;18.25
76583;BMP280;65462;52.148;7.940;2023-07-20T00:57:57;100525.13;;;18.25
76583;BMP280;65462;52.148;7.940;2023-07-20T01:00:22;100534.66;;;18.23
76583;BMP280;65462;52.148;7.940;2023-07-20T01:02:48;100523.59;;;18.21
76583;BMP280;65462;52.148;7.940;2023-07-20T01:05:13;100523.94;;;18.19
76583;BMP280;65462;52.148;7.940;2023-07-20T01:08:07;100527.38;;;18.16
76583;BMP280;65462;52.148;7.940;2023-07-20T01:10:43;100520.09;;;18.13
76583;BMP280;65462;52.148;7.940;2023-07-20T01:13:11;100518.94;;;18.11
76583;BMP280;65462;52.148;7.940;2023-07-20T01:15:39;100510.50;;;18.09
76583;BMP280;65462;52.148;7.940;2023-07-20T01:18:04;100508.56;;;18.06
76583;BMP280;65462;52.148;7.940;2023-07-20T01:20:31;100512.03;;;18.06
76583;BMP280;65462;52.148;7.940;2023-07-20T01:31:25;100518.09;;;18.00
76583;BMP280;65462;52.148;7.940;2023-07-20T01:33:55;100513.09;;;17.95
76583;BMP280;65462;52.148;7.940;2023-07-20T01:36:22;100514.25;;;17.94
76583;BMP280;65462;52.148;7.940;2023-07-20T01:38:49;100523.00;;;17.91
76583;BMP280;65462;52.148;7.940;2023-07-20T01:41:15;100527.59;;;17.90
76583;BMP280;65462;52.148;7.940;2023-07-20T01:43:40;100531.03;;;17.87
76583;BMP280;65462;52.148;7.940;2023-07-20T01:46:06;100526.06;;;17.86
76583;BMP280;65462;52.148;7.940;2023-07-20T01:48:31;100530.59;;;17.82
76583;BMP280;65462;52.148;7.940;2023-07-20T01:50:56;100530.22;;;17.80
76583;BMP280;65462;52.148;7.940;2023-07-20T01:53:22;100521.78;;;17.78
76583;BMP280;65462;52.148;7.940;2023-07-20T01:55:47;100522.53;;;17.75
76583;BMP280;65462;52.148;7.940;2023-07-20T01:58:13;100521.38;;;17.72
76583;BMP280;65462;52.148;7.940;2023-07-20T02:00:38;100519.47;;;17.69
76583;BMP280;65462;52.148;7.940;2023-07-20T02:03:04;100519.41;;;17.66
76583;BMP280;65462;52.148;7.940;2023-07-20T02:05:29;100522.09;;;17.66
76583;BMP280;65462;52.148;7.940;2023-07-20T02:07:54;100520.16;;;17.63
76583;BMP280;65462;52.148;7.940;2023-07-20T02:10:20;100522.84;;;17.63
76583;BMP280;65462;52.148;7.940;2023-07-20T02:12:45;100515.59;;;17.63
76583;BMP280;65462;52.148;7.940;2023-07-20T02:15:10;100514.38;;;17.61
76583;BMP280;65462;52.148;7.940;2023-07-20T02:17:36;100516.34;;;17.60
76583;BMP280;65462;52.148;7.940;2023-07-20T02:20:02;100519.38;;;17.59
76583;BMP280;65462;52.148;7.940;2023-07-20T02:22:28;100528.50;;;17.58
76583;BMP280;65462;52.148;7.940;2023-07-20T02:24:53;100523.59;;;17.60
76583;BMP280;65462;52.148;7.940;2023-07-20T02:27:18;100529.72;;;17.60
76583;BMP280;65462;52.148;7.940;2023-07-20T02:29:44;100529.31;;;17.62
76583;BMP280;65462;52.148;7.940;2023-07-20T02:32:09;100521.63;;;17.57
76583;BMP280;65462;52.148;7.940;2023-07-20T02:34:37;100525.41;;;17.52
76583;BMP280;65462;52.148;7.940;2023-07-20T02:37:02;100519.69;;;17.50
76583;BMP280;65462;52.148;7.940;2023-07-20T02:39:28;100532.28;;;17.50
76583;BMP280;65462;52.148;7.940;2023-07-20T02:41:53;100528.03;;;17.45
76583;BMP280;65462;52.148;7.940;2023-07-20T02:44:19;100529.19;;;17.44
76583;BMP280;65462;52.148;7.940;2023-07-20T02:46:44;100538.72;;;17.45
76583;BMP280;65462;52.148;7.940;2023-07-20T02:49:09;100539.44;;;17.42
76583;BMP280;65462;52.148;7.940;2023-07-20T02:51:35;100537.91;;;17.37
76583;BMP280;65462;52.148;7.940;2023-07-20T02:54:00;100542.44;;;17.33
76583;BMP280;65462;52.148;7.940;2023-07-20T02:56:26;100543.56;;;17.32
76583;BMP280;65462;52.148;7.940;2023-07-20T02:58:51;100552.69;;;17.31
76583;BMP280;65462;52.148;7.940;2023-07-20T03:01:17;100555.78;;;17.30
76583;BMP280;65462;52.148;7.940;2023-07-20T03:03:42;100553.09;;;17.26
76583;BMP280;65462;52.148;7.940;2023-07-20T03:06:14;100557.25;;;17.24
76583;BMP280;65462;52.148;7.940;2023-07-20T03:08:43;100556.47;;;17.23
76583;BMP280;65462;52.148;7.940;2023-07-20T03:11:18;100563.69;;;17.19
76583;BMP280;65462;52.148;7.940;2023-07-20T03:13:44;100568.63;;;17.17
76583;BMP280;65462;52.148;7.940;2023-07-20T03:16:15;100565.16;;;17.13
76583;BMP280;65462;52.148;7.940;2023-07-20T03:18:42;100568.94;;;17.12
76583;BMP280;65462;52.148;7.940;2023-07-20T03:21:09;100567.03;;;17.13
76583;BMP280;65462;52.148;7.940;2023-07-20T03:23:36;100567.44;;;17.11
76583;BMP280;65462;52.148;7.940;2023-07-20T03:26:01;100577.69;;;17.09
76583;BMP280;65462;52.148;7.940;2023-07-20T03:28:27;100578.44;;;17.06
76583;BMP280;65462;52.148;7.940;2023-07-20T03:30:53;100577.69;;;17.09
76583;BMP280;65462;52.148;7.940;2023-07-20T03:33:19;100575.75;;;17.06
76583;BMP280;65462;52.148;7.940;2023-07-20T03:35:45;100575.31;;;17.01
76583;BMP280;65462;52.148;7.940;2023-07-20T03:38:10;100565.69;;;16.93
76583;BMP280;65462;52.148;7.940;2023-07-20T03:40:35;100567.59;;;16.92
76583;BMP280;65462;52.148;7.940;2023-07-20T03:43:00;100563.00;;;16.89
76583;BMP280;65462;52.148;7.940;2023-07-20T03:45:26;100565.28;;;16.91
76583;BMP280;65462;52.148;7.940;2023-07-20T03:47:51;100563.00;;;16.89
76583;BMP280;65462;52.148;7.940;2023-07-20T03:50:16;100565.22;;;16.87
76583;BMP280;65462;52.148;7.940;2023-07-20T03:52:42;100571.75;;;16.86
76583;BMP280;65462;52.148;7.940;2023-07-20T03:55:07;100566.72;;;16.81
76583;BMP280;65462;52.148;7.940;2023-07-20T03:57:32;100577.75;;;16.83
76583;BMP280;65462;52.148;7.940;2023-07-20T03:59:58;100587.28;;;16.81
76583;BMP280;65462;52.148;7.940;2023-07-20T04:02:23;100586.09;;;16.78
76583;BMP280;65462;52.148;7.940;2023-07-20T04:04:49;100583.44;;;16.78
76583;BMP280;65462;52.148;7.940;2023-07-20T04:07:14;100590.34;;;16.79
76583;BMP280;65462;52.148;7.940;2023-07-20T04:09:39;100578.47;;;16.77
76583;BMP280;65462;52.148;7.940;2023-07-20T04:12:06;100578.84;;;16.75
76583;BMP280;65462;52.148;7.940;2023-07-20T04:14:31;100581.84;;;16.74
76583;BMP280;65462;52.148;7.940;2023-07-20T04:16:56;100584.88;;;16.72
76583;BMP280;65462;52.148;7.940;2023-07-20T04:19:21;100582.22;;;16.72
76583;BMP280;65462;52.148;7.940;2023-07-20T04:21:47;100579.16;;;16.70
76583;BMP280;65462;52.148;7.940;2023-07-20T04:24:12;100575.34;;;16.71
76583;BMP280;65462;52.148;7.940;2023-07-20T04:26:37;100576.50;;;16.70
76583;BMP280;65462;52.148;7.940;2023-07-20T04:29:03;100588.28;;;16.69
76583;BMP280;65462;52.148;7.940;2023-07-20T04:31:28;100577.19;;;16.67
76583;BMP280;65462;52.148;7.940;2023-07-20T04:33:54;100577.19;;;16.67
76583;BMP280;65462;52.148;7.940;2023-07-20T04:36:19;100576.44;;;16.67
76583;BMP280;65462;52.148;7.940;2023-07-20T04:38:45;100590.16;;;16.65
76583;BMP280;65462;52.148;7.940;2023-07-20T04:41:11;100588.59;;;16.64
76583;BMP280;65462;52.148;7.940;2023-07-20T04:43:43;100585.94;;;16.64
76583;BMP280;65462;52.148;7.940;2023-07-20T04:46:09;100592.41;;;16.63
76583;BMP280;65462;52.148;7.940;2023-07-20T04:48:35;100595.50;;;16.65
76583;BMP280;65462;52.148;7.940;2023-07-20T04:51:00;100607.66;;;16.63
76583;BMP280;65462;52.148;7.940;2023-07-20T04:53:25;100599.25;;;16.61
76583;BMP280;65462;52.148;7.940;2023-07-20T04:55:50;100606.78;;;16.55
76583;BMP280;65462;52.148;7.940;2023-07-20T04:58:17;100606.78;;;16.55
76583;BMP280;65462;52.148;7.940;2023-07-20T05:00:43;100607.13;;;16.50
76583;BMP280;65462;52.148;7.940;2023-07-20T05:03:09;100605.97;;;16.51
76583;BMP280;65462;52.148;7.940;2023-07-20T05:05:34;100608.63;;;16.51
76583;BMP280;65462;52.148;7.940;2023-07-20T05:07:59;100603.72;;;16.53
76583;BMP280;65462;52.148;7.940;2023-07-20T05:10:24;100611.72;;;16.53
76583;BMP280;65462;52.148;7.940;2023-07-20T05:12:50;100609.88;;;16.57
76583;BMP280;65462;52.148;7.940;2023-07-20T05:15:15;100606.00;;;16.54
76583;BMP280;65462;52.148;7.940;2023-07-20T05:17:41;100606.50;;;16.60
76583;BMP280;65462;52.148;7.940;2023-07-20T05:20:09;100610.38;;;16.66
76583;BMP280;65462;52.148;7.940;2023-07-20T05:22:38;100619.50;;;16.65
76583;BMP280;65462;52.148;7.940;2023-07-20T05:25:08;100613.06;;;16.66
76583;BMP280;65462;52.148;7.940;2023-07-20T05:27:36;100621.06;;;16.66
76583;BMP280;65462;52.148;7.940;2023-07-20T05:30:02;100621.41;;;16.65
76583;BMP280;65462;52.148;7.940;2023-07-20T05:32:28;100618.38;;;16.66
76583;BMP280;65462;52.148;7.940;2023-07-20T05:34:53;100621.41;;;16.65
76583;BMP280;65462;52.148;7.940;2023-07-20T05:37:19;100629.81;;;16.67
76583;BMP280;65462;52.148;7.940;2023-07-20T05:39:44;100625.63;;;16.66
76583;BMP280;65462;52.148;7.940;2023-07-20T05:42:10;100628.28;;;16.66
76583;BMP280;65462;52.148;7.940;2023-07-20T05:44:35;100631.34;;;16.68
76583;BMP280;65462;52.148;7.940;2023-07-20T05:47:00;100635.22;;;16.70
76583;BMP280;65462;52.148;7.940;2023-07-20T05:49:27;100628.31;;;16.69
76583;BMP280;65462;52.148;7.940;2023-07-20T05:51:52;100637.50;;;16.72
76583;BMP280;65462;52.148;7.940;2023-07-20T05:54:18;100637.16;;;16.73
76583;BMP280;65462;52.148;7.940;2023-07-20T05:56:45;100640.22;;;16.75
76583;BMP280;65462;52.148;7.940;2023-07-20T05:59:10;100651.28;;;16.77
76583;BMP280;65462;52.148;7.940;2023-07-20T06:01:36;100633.78;;;16.76
76583;BMP280;65462;52.148;7.940;2023-07-20T06:04:01;100644.44;;;16.76
76583;BMP280;65462;52.148;7.940;2023-07-20T06:06:28;100641.38;;;16.78
76583;BMP280;65462;52.148;7.940;2023-07-20T06:08:53;100650.16;;;16.78
76583;BMP280;65462;52.148;7.940;2023-07-20T06:11:19;100647.50;;;16.78
76583;BMP280;65462;52.148;7.940;2023-07-20T06:13:45;100643.72;;;16.79
76583;BMP280;65462;52.148;7.940;2023-07-20T06:16:10;100644.88;;;16.82
76583;BMP280;65462;52.148;7.940;2023-07-20T06:18:36;100639.16;;;16.80
76583;BMP280;65462;52.148;7.940;2023-07-20T06:21:01;100647.53;;;16.82
76583;BMP280;65462;52.148;7.940;2023-07-20T06:23:26;100646.06;;;16.84
76583;BMP280;65462;52.148;7.940;2023-07-20T06:25:52;100656.00;;;16.87
76583;BMP280;65462;52.148;7.940;2023-07-20T06:28:17;100658.38;;;16.92
76583;BMP280;65462;52.148;7.940;2023-07-20T06:30:43;100660.31;;;16.95
76583;BMP280;65462;52.148;7.940;2023-07-20T06:33:08;100663.03;;;16.99
76583;BMP280;65462;52.148;7.940;2023-07-20T06:35:34;100666.88;;;17.01
76583;BMP280;65462;52.148;7.940;2023-07-20T06:38:00;100671.91;;;17.06
76583;BMP280;65462;52.148;7.940;2023-07-20T06:40:26;100665.47;;;17.11
76583;BMP280;65462;52.148;7.940;2023-07-20T06:42:51;100667.81;;;17.16
76583;BMP280;65462;52.148;7.940;2023-07-20T06:45:16;100674.69;;;17.17
76583;BMP280;65462;52.148;7.940;2023-07-20T06:47:42;100666.72;;;17.20
76583;BMP280;65462;52.148;7.940;2023-07-20T06:50:08;100675.13;;;17.22
76583;BMP280;65462;52.148;7.940;2023-07-20T06:52:33;100677.09;;;17.25
76583;BMP280;65462;52.148;7.940;2023-07-20T06:54:59;100676.72;;;17.27
76583;BMP280;65462;52.148;7.940;2023-07-20T06:57:25;100670.25;;;17.28
76583;BMP280;65462;52.148;7.940;2023-07-20T06:59:50;100684.00;;;17.30
76583;BMP280;65462;52.148;7.940;2023-07-20T07:02:15;100679.44;;;17.30
76583;BMP280;65462;52.148;7.940;2023-07-20T07:04:41;100680.59;;;17.33
76583;BMP280;65462;52.148;7.940;2023-07-20T07:07:07;100678.69;;;17.33
76583;BMP280;65462;52.148;7.940;2023-07-20T07:09:32;100683.31;;;17.36
76583;BMP280;65462;52.148;7.940;2023-07-20T07:11:57;100677.22;;;17.36
76583;BMP280;65462;52.148;7.940;2023-07-20T07:14:23;100682.19;;;17.37
76583;BMP280;65462;52.148;7.940;2023-07-20T07:16:48;100682.97;;;17.41
76583;BMP280;65462;52.148;7.940;2023-07-20T07:19:13;100682.72;;;17.50
76583;BMP280;65462;52.148;7.940;2023-07-20T07:21:38;100685.41;;;17.54
76583;BMP280;65462;52.148;7.940;2023-07-20T07:24:04;100690.41;;;17.59
76583;BMP280;65462;52.148;7.940;2023-07-20T07:26:32;100688.59;;;17.66
76583;BMP280;65462;52.148;7.940;2023-07-20T07:28:57;100692.81;;;17.71
76583;BMP280;65462;52.148;7.940;2023-07-20T07:31:22;100693.69;;;17.78
76583;BMP280;65462;52.148;7.940;2023-07-20T07:33:48;100693.78;;;17.89
76583;BMP280;65462;52.148;7.940;2023-07-20T07:36:13;100700.03;;;18.07
76583;BMP280;65462;52.148;7.940;2023-07-20T07:38:38;100698.63;;;18.20
76583;BMP280;65462;52.148;7.940;2023-07-20T07:41:04;100701.81;;;18.36
76583;BMP280;65462;52.148;7.940;2023-07-20T07:43:29;100693.84;;;18.47
76583;BMP280;65462;52.148;7.940;2023-07-20T07:45:54;100701.16;;;18.53
76583;BMP280;65462;52.148;7.940;2023-07-20T07:48:20;100701.94;;;18.64
76583;BMP280;65462;52.148;7.940;2023-07-20T07:50:47;100706.25;;;18.72
76583;BMP280;65462;52.148;7.940;2023-07-20T07:53:12;100710.13;;;18.82
76583;BMP280;65462;52.148;7.940;2023-07-20T07:55:37;100704.78;;;18.92
76583;BMP280;65462;52.148;7.940;2023-07-20T07:58:03;100708.66;;;19.05
76583;BMP280;65462;52.148;7.940;2023-07-20T08:00:28;100712.16;;;19.16
76583;BMP280;65462;52.148;7.940;2023-07-20T08:02:53;100708.00;;;19.33
76583;BMP280;65462;52.148;7.940;2023-07-20T08:05:19;100712.63;;;19.54
76583;BMP280;65462;52.148;7.940;2023-07-20T08:07:44;100718.03;;;19.75
76583;BMP280;65462;52.148;7.940;2023-07-20T08:10:11;100714.59;;;19.92
76583;BMP280;65462;52.148;7.940;2023-07-20T08:12:36;100721.09;;;20.05
76583;BMP280;65462;52.148;7.940;2023-07-20T08:15:02;100718.81;;;20.17
76583;BMP280;65462;52.148;7.940;2023-07-20T08:17:27;100721.47;;;20.28
76583;BMP280;65462;52.148;7.940;2023-07-20T08:19:52;100723.38;;;20.38
76583;BMP280;65462;52.148;7.940;2023-07-20T08:22:18;100726.06;;;20.52
76583;BMP280;65462;52.148;7.940;2023-07-20T08:24:43;100722.97;;;20.61
76583;BMP280;65462;52.148;7.940;2023-07-20T08:27:09;100722.53;;;20.73
76583;BMP280;65462;52.148;7.940;2023-07-20T08:29:35;100718.31;;;20.79
76583;BMP280;65462;52.148;7.940;2023-07-20T08:32:00;100723.66;;;20.82
76583;BMP280;65462;52.148;7.940;2023-07-20T08:34:25;100720.97;;;20.82
76583;BMP280;65462;52.148;7.940;2023-07-20T08:36:50;100712.16;;;20.82
76583;BMP280;65462;52.148;7.940;2023-07-20T08:39:16;100716.75;;;20.81
76583;BMP280;65462;52.148;7.940;2023-07-20T08:41:43;100709.47;;;20.82
76583;BMP280;65462;52.148;7.940;2023-07-20T08:44:08;100720.94;;;20.86
76583;BMP280;65462;52.148;7.940;2023-07-20T08:46:35;100716.69;;;20.95
76583;BMP280;65462;52.148;7.940;2023-07-20T08:49:03;100717.41;;;21.10
76583;BMP280;65462;52.148;7.940;2023-07-20T08:51:29;100721.56;;;21.21
76583;BMP280;65462;52.148;7.940;2023-07-20T08:53:55;100717.25;;;21.34
76583;BMP280;65462;52.148;7.940;2023-07-20T08:56:20;100722.16;;;21.46
76583;BMP280;65462;52.148;7.940;2023-07-20T08:58:46;100720.94;;;21.58
76583;BMP280;65462;52.148;7.940;2023-07-20T09:01:12;100727.81;;;21.63
76583;BMP280;65462;52.148;7.940;2023-07-20T09:03:38;100729.34;;;21.64
76583;BMP280;65462;52.148;7.940;2023-07-20T09:06:05;100739.38;;;21.63
76583;BMP280;65462;52.148;7.940;2023-07-20T09:08:31;100726.31;;;21.62
76583;BMP280;65462;52.148;7.940;2023-07-20T09:10:56;100733.97;;;21.63
76583;BMP280;65462;52.148;7.940;2023-07-20T09:13:21;100721.63;;;21.69
76583;BMP280;65462;52.148;7.940;2023-07-20T09:15:52;100720.38;;;21.81
76583;BMP280;65462;52.148;7.940;2023-07-20T09:18:28;100721.81;;;21.92
76583;BMP280;65462;52.148;7.940;2023-07-20T09:21:20;100730.13;;;22.08
76583;BMP280;65462;52.148;7.940;2023-07-20T09:23:46;100730.41;;;22.21
76583;BMP280;65462;52.148;7.940;2023-07-20T09:26:13;100731.50;;;22.27
76583;BMP280;65462;52.148;7.940;2023-07-20T09:28:43;100733.03;;;22.28
76583;BMP280;65462;52.148;7.940;2023-07-20T09:31:16;100731.16;;;22.25
76583;BMP280;65462;52.148;7.940;2023-07-20T09:33:46;100735.34;;;22.26
76583;BMP280;65462;52.148;7.940;2023-07-20T09:36:12;100735.75;;;22.24
76583;BMP280;65462;52.148;7.940;2023-07-20T09:38:38;100750.78;;;22.22
76583;BMP280;65462;52.148;7.940;2023-07-20T09:41:06;100739.56;;;22.27
76583;BMP280;65462;52.148;7.940;2023-07-20T09:43:33;100742.19;;;22.34
76583;BMP280;65462;52.148;7.940;2023-07-20T09:45:59;100734.72;;;22.48
76583;BMP280;65462;52.148;7.940;2023-07-20T09:48:25;100743.84;;;22.62
76583;BMP280;65462;52.148;7.940;2023-07-20T09:50:52;100738.72;;;22.71
76583;BMP280;65462;52.148;7.940;2023-07-20T09:53:18;100734.75;;;22.79
76583;BMP280;65462;52.148;7.940;2023-07-20T09:55:45;100731.13;;;22.92
76583;BMP280;65462;52.148;7.940;2023-07-20T09:58:11;100729.06;;;23.03
76583;BMP280;65462;52.148;7.940;2023-07-20T10:00:38;100725.47;;;23.13
76583;BMP280;65462;52.148;7.940;2023-07-20T10:03:05;100732.22;;;23.25
76583;BMP280;65462;52.148;7.940;2023-07-20T10:05:35;100724.41;;;23.30
76583;BMP280;65462;52.148;7.940;2023-07-20T10:08:02;100726.25;;;23.37
76583;BMP280;65462;52.148;7.940;2023-07-20T10:10:28;100729.25;;;23.42
76583;BMP280;65462;52.148;7.940;2023-07-20T10:12:56;100721.09;;;23.46
76583;BMP280;65462;52.148;7.940;2023-07-20T10:15:33;100727.56;;;23.52
76583;BMP280;65462;52.148;7.940;2023-07-20T10:18:11;100734.44;;;23.56
76583;BMP280;65462;52.148;7.940;2023-07-20T10:20:40;100729.81;;;23.57
76583;BMP280;65462;52.148;7.940;2023-07-20T10:23:07;100734.75;;;23.58
76583;BMP280;65462;52.148;7.940;2023-07-20T10:25:33;100721.72;;;23.57
76583;BMP280;65462;52.148;7.940;2023-07-20T10:28:04;100728.22;;;23.59
76583;BMP280;65462;52.148;7.940;2023-07-20T10:30:30;100735.16;;;23.60
76583;BMP280;65462;52.148;7.940;2023-07-20T10:32:56;100713.94;;;23.59
76583;BMP280;65462;52.148;7.940;2023-07-20T10:35:21;100723.97;;;23.58
76583;BMP280;65462;52.148;7.940;2023-07-20T10:37:54;100714.72;;;23.59
76583;BMP280;65462;52.148;7.940;2023-07-20T10:40:29;100723.97;;;23.58
76583;BMP280;65462;52.148;7.940;2023-07-20T10:42:59;100722.09;;;23.55
76583;BMP280;65462;52.148;7.940;2023-07-20T10:45:34;100709.47;;;23.49
76583;BMP280;65462;52.148;7.940;2023-07-20T10:48:04;100715.69;;;23.46
76583;BMP280;65462;52.148;7.940;2023-07-20T10:50:32;100709.16;;;23.47
76583;BMP280;65462;52.148;7.940;2023-07-20T10:53:11;100706.88;;;23.45
76583;BMP280;65462;52.148;7.940;2023-07-20T10:55:37;100707.56;;;23.49
76583;BMP280;65462;52.148;7.940;2023-07-20T10:58:10;100704.84;;;23.49
76583;BMP280;65462;52.148;7.940;2023-07-20T11:00:35;100707.56;;;23.49
76583;BMP280;65462;52.148;7.940;2023-07-20T11:03:01;100714.19;;;23.45
76583;BMP280;65462;52.148;7.940;2023-07-20T11:05:38;100709.56;;;23.45
76583;BMP280;65462;52.148;7.940;2023-07-20T11:08:14;100711.53;;;23.41
76583;BMP280;65462;52.148;7.940;2023-07-20T11:13:58;100698.81;;;23.42
76583;BMP280;65462;52.148;7.940;2023-07-20T11:16:53;100700.75;;;23.41
76583;BMP280;65462;52.148;7.940;2023-07-20T11:19:22;100705.38;;;23.41
76583;BMP280;65462;52.148;7.940;2023-07-20T11:21:58;100706.16;;;23.41
76583;BMP280;65462;52.148;7.940;2023-07-20T11:24:24;100702.41;;;23.35
76583;BMP280;65462;52.148;7.940;2023-07-20T11:26:53;100692.03;;;23.30
76583;BMP280;65462;52.148;7.940;2023-07-20T11:29:20;100685.81;;;23.33
76583;BMP280;65462;52.148;7.940;2023-07-20T11:31:47;100687.31;;;23.38
76583;BMP280;65462;52.148;7.940;2023-07-20T11:34:21;100684.84;;;23.47
76583;BMP280;65462;52.148;7.940;2023-07-20T11:36:48;100688.97;;;23.55
76583;BMP280;65462;52.148;7.940;2023-07-20T11:39:15;100686.19;;;23.58
76583;BMP280;65462;52.148;7.940;2023-07-20T11:41:46;100693.78;;;23.67
76583;BMP280;65462;52.148;7.940;2023-07-20T11:44:12;100684.44;;;23.71
76583;BMP280;65462;52.148;7.940;2023-07-20T11:46:38;100688.19;;;23.77
76583;BMP280;65462;52.148;7.940;2023-07-20T11:49:04;100683.91;;;23.80
76583;BMP280;65462;52.148;7.940;2023-07-20T11:51:30;100691.59;;;23.81
76583;BMP280;65462;52.148;7.940;2023-07-20T11:53:56;100691.25;;;23.79
76583;BMP280;65462;52.148;7.940;2023-07-20T11:56:25;100682.03;;;23.77
76583;BMP280;65462;52.148;7.940;2023-07-20T11:58:54;100676.22;;;23.78
76583;BMP280;65462;52.148;7.940;2023-07-20T12:01:20;100676.22;;;23.78
76583;BMP280;65462;52.148;7.940;2023-07-20T12:03:47;100681.91;;;23.84
76583;BMP280;65462;52.148;7.940;2023-07-20T12:06:13;100676.91;;;23.83
76583;BMP280;65462;52.148;7.940;2023-07-20T12:08:42;100666.44;;;23.84
76583;BMP280;65462;52.148;7.940;2023-07-20T12:11:08;100678.03;;;23.85
76583;BMP280;65462;52.148;7.940;2023-07-20T12:13:43;100671.78;;;23.88
76583;BMP280;65462;52.148;7.940;2023-07-20T12:16:13;100667.88;;;23.93
76583;BMP280;65462;52.148;7.940;2023-07-20T12:18:40;100662.47;;;23.93
76583;BMP280;65462;52.148;7.940;2023-07-20T12:21:06;100666.19;;;23.99
76583;BMP280;65462;52.148;7.940;2023-07-20T12:23:36;100669.13;;;24.08
76583;BMP280;65462;52.148;7.940;2023-07-20T12:26:02;100667.81;;;24.16
76583;BMP280;65462;52.148;7.940;2023-07-20T12:28:28;100664.47;;;24.28
76583;BMP280;65462;52.148;7.940;2023-07-20T12:30:54;100654.56;;;24.41
76583;BMP280;65462;52.148;7.940;2023-07-20T12:33:22;100660.81;;;24.54
76583;BMP280;65462;52.148;7.940;2023-07-20T12:35:48;100653.25;;;24.65
76583;BMP280;65462;52.148;7.940;2023-07-20T12:38:14;100670.84;;;24.73
76583;BMP280;65462;52.148;7.940;2023-07-20T12:40:41;100666.97;;;24.74
76583;BMP280;65462;52.148;7.940;2023-07-20T12:43:06;100667.38;;;24.72
76583;BMP280;65462;52.148;7.940;2023-07-20T12:45:31;100660.34;;;24.75
76583;BMP280;65462;52.148;7.940;2023-07-20T12:47:57;100656.50;;;24.76
76583;BMP280;65462;52.148;7.940;2023-07-20T12:50:22;100663.06;;;24.75
76583;BMP280;65462;52.148;7.940;2023-07-20T12:52:48;100661.97;;;24.72
76583;BMP280;65462;52.148;7.940;2023-07-20T12:55:13;100666.28;;;24.70
76583;BMP280;65462;52.148;7.940;2023-07-20T12:57:38;100663.22;;;24.68
76583;BMP280;65462;52.148;7.940;2023-07-20T13:00:06;100660.69;;;24.61
76583;BMP280;65462;52.148;7.940;2023-07-20T13:02:33;100663.53;;;24.54
76583;BMP280;65462;52.148;7.940;2023-07-20T13:04:58;100663.69;;;24.47
76583;BMP280;65462;52.148;7.940;2023-07-20T13:07:31;100653.84;;;24.37
76583;BMP280;65462;52.148;7.940;2023-07-20T13:09:57;100661.78;;;24.28
76583;BMP280;65462;52.148;7.940;2023-07-20T13:12:24;100669.31;;;24.17
76583;BMP280;65462;52.148;7.940;2023-07-20T13:14:49;100668.75;;;24.06
76583;BMP280;65462;52.148;7.940;2023-07-20T13:17:15;100673.66;;;23.91
76583;BMP280;65462;52.148;7.940;2023-07-20T13:19:40;100672.00;;;23.77
76583;BMP280;65462;52.148;7.940;2023-07-20T13:22:05;100678.69;;;23.69
76583;BMP280;65462;52.148;7.940;2023-07-20T13:24:31;100676.88;;;23.63
76583;BMP280;65462;52.148;7.940;2023-07-20T13:26:56;100682.31;;;23.59
76583;BMP280;65462;52.148;7.940;2023-07-20T13:29:21;100679.28;;;23.57
76583;BMP280;65462;52.148;7.940;2023-07-20T13:31:46;100681.22;;;23.57
76583;BMP280;65462;52.148;7.940;2023-07-20T13:34:12;100687.00;;;23.55
76583;BMP280;65462;52.148;7.940;2023-07-20T13:36:37;100686.69;;;23.53
76583;BMP280;65462;52.148;7.940;2023-07-20T13:39:02;100685.13;;;23.52
76583;BMP280;65462;52.148;7.940;2023-07-20T13:41:29;100680.63;;;23.46
76583;BMP280;65462;52.148;7.940;2023-07-20T13:43:57;100684.56;;;23.41
76583;BMP280;65462;52.148;7.940;2023-07-20T13:46:22;100673.41;;;23.39
76583;BMP280;65462;52.148;7.940;2023-07-20T13:48:48;100671.06;;;23.41
76583;BMP280;65462;52.148;7.940;2023-07-20T13:51:13;100674.13;;;23.43
76583;BMP280;65462;52.148;7.940;2023-07-20T13:53:39;100684.09;;;23.46
76583;BMP280;65462;52.148;7.940;2023-07-20T13:56:04;100669.38;;;23.51
76583;BMP280;65462;52.148;7.940;2023-07-20T13:58:29;100676.22;;;23.55
76583;BMP280;65462;52.148;7.940;2023-07-20T14:00:55;100666.13;;;23.59
76583;BMP280;65462;52.148;7.940;2023-07-20T14:03:20;100679.63;;;23.59
76583;BMP280;65462;52.148;7.940;2023-07-20T14:05:45;100676.88;;;23.63